Time;durP1;ratioP1;P1;durP2;ratioP2;P2;SDS_P1;SDS_P2;PMS_P1;PMS_P2;Temp;Humidity;BMP_temperature;BMP_pressure;BME280_temperature;BME280_humidity;BME280_pressure;Samples;Min_cycle;Max_cycle;Signal;HPM_P1;HPM_P2
2022/06/23 00:02:37;;;;;;;15.75;9.77;;;;;;;16.19;90.72;101256.88;10523754;28;20028;-74
2022/06/23 00:07:38;;;;;;;16.52;9.82;;;;;;;16.16;89.33;101251.88;10507288;28;20024;-73
2022/06/23 00:12:39;;;;;;;19.88;10.27;;;;;;;16.16;91.33;101246.41;10539474;28;20532;-74
2022/06/23 00:17:44;;;;;;;15.75;10.82;;;;;;;16.15;89.99;101231.91;10523487;28;20036;-74
2022/06/23 00:22:47;;;;;;;8.75;7.88;;;;;;;16.15;95.62;101237.38;10522428;28;20080;-73
2022/06/23 00:27:47;;;;;;;12.27;8.38;;;;;;;16.11;95.82;101235.31;10506237;28;20024;-74
2022/06/23 00:32:48;;;;;;;11.75;8.02;;;;;;;16.07;92.80;101234.09;10522555;28;20397;-73
2022/06/23 00:37:50;;;;;;;11.63;8.15;;;;;;;16.02;93.60;101221.97;10539728;28;20035;-73
2022/06/23 00:42:54;;;;;;;15.60;9.57;;;;;;;15.97;94.32;101213.59;10540375;28;20036;-73
2022/06/23 00:48:08;;;;;;;8.55;7.47;;;;;;;15.96;93.76;101227.50;10523681;28;20035;-73
2022/06/23 00:53:11;;;;;;;16.15;7.88;;;;;;;15.91;95.02;101216.41;10523633;28;20065;-74
2022/06/23 00:58:35;;;;;;;12.80;8.05;;;;;;;15.90;95.99;101218.28;10540640;28;20043;-74
2022/06/23 01:03:57;;;;;;;21.15;8.63;;;;;;;15.86;93.93;101214.34;10526337;28;20373;-73
2022/06/23 01:09:13;;;;;;;15.45;7.97;;;;;;;15.83;96.37;101212.06;10539635;28;20043;-74
2022/06/23 01:14:25;;;;;;;17.45;8.05;;;;;;;15.81;96.73;101211.44;10507033;28;20036;-74
2022/06/23 01:20:03;;;;;;;11.02;7.88;;;;;;;15.77;99.40;101216.53;10540168;28;20028;-74
2022/06/23 01:25:09;;;;;;;7.50;6.63;;;;;;;15.74;99.58;101227.06;10540599;28;20036;-74
2022/06/23 01:30:10;;;;;;;8.05;7.05;;;;;;;15.70;99.75;101234.03;10540125;28;20039;-74
2022/06/23 01:35:30;;;;;;;13.95;8.70;;;;;;;15.66;100.00;101216.38;10504301;28;20504;-68
2022/06/23 01:40:34;;;;;;;10.57;8.77;;;;;;;15.68;100.00;101219.75;10520794;28;20480;-68
2022/06/23 01:45:38;;;;;;;10.88;7.32;;;;;;;15.67;100.00;101223.56;10504147;28;20035;-68
2022/06/23 01:50:52;;;;;;;15.07;8.50;;;;;;;15.63;100.00;101219.56;10544274;28;20016;-68
2022/06/23 01:56:01;;;;;;;15.23;8.68;;;;;;;15.58;100.00;101210.16;10528172;28;20028;-67
2022/06/23 02:01:01;;;;;;;17.98;9.43;;;;;;;15.55;100.00;101216.06;10528615;28;20118;-68
2022/06/23 02:06:16;;;;;;;9.27;8.35;;;;;;;15.53;100.00;101203.69;10528414;28;20035;-68
2022/06/23 02:11:29;;;;;;;19.25;8.93;;;;;;;15.47;100.00;101197.22;10511338;28;20481;-68
2022/06/23 02:17:06;;;;;;;12.98;8.02;;;;;;;15.43;100.00;101195.16;10546065;28;20028;-68
2022/06/23 02:22:11;;;;;;;10.60;7.88;;;;;;;15.38;100.00;101194.97;10478324;28;20525;-68
2022/06/23 02:27:19;;;;;;;11.50;9.27;;;;;;;15.39;100.00;101211.16;10503989;28;20028;-68
2022/06/23 02:32:29;;;;;;;12.20;8.77;;;;;;;15.34;100.00;101205.50;10502745;28;20036;-68
2022/06/23 02:37:53;;;;;;;9.88;8.38;;;;;;;15.30;100.00;101202.38;10502142;28;20032;-69
2022/06/23 02:43:00;;;;;;;18.70;8.60;;;;;;;15.29;100.00;101189.81;10503024;28;20179;-68
2022/06/23 02:48:05;;;;;;;;;;;;;;;15.22;100.00;101197.22;10502668;28;20110;-68
2022/06/23 02:53:24;;;;;;;10.30;9.02;;;;;;;15.21;100.00;101175.59;10484729;28;19912;-68
2022/06/23 02:58:27;;;;;;;15.70;9.13;;;;;;;15.15;100.00;101171.03;10502450;28;20044;-70
2022/06/23 03:03:39;;;;;;;12.30;9.20;;;;;;;15.15;100.00;101177.31;10501178;28;20529;-68
2022/06/23 03:08:49;;;;;;;15.07;8.02;;;;;;;15.15;100.00;101182.78;10500313;28;20454;-68
2022/06/23 03:13:52;;;;;;;22.15;9.65;;;;;;;15.12;100.00;101166.84;10484481;28;20369;-68
2022/06/23 03:19:19;;;;;;;11.93;8.82;;;;;;;15.11;100.00;101173.38;10483117;28;20036;-68
2022/06/23 03:24:42;;;;;;;17.02;9.98;;;;;;;15.06;100.00;101171.31;10538635;28;20139;-68
2022/06/23 03:29:49;;;;;;;15.38;8.55;;;;;;;15.08;100.00;101166.47;10541865;28;20437;-69
2022/06/23 03:35:12;;;;;;;10.68;9.30;;;;;;;15.10;100.00;101155.34;10525078;28;20028;-68
2022/06/23 03:45:48;;;;;;;18.23;9.27;;;;;;;15.15;100.00;101151.94;10526990;28;20031;-68
2022/06/23 03:51:00;;;;;;;13.90;8.07;;;;;;;15.16;100.00;101146.28;10523896;28;20035;-68
2022/06/23 03:56:03;;;;;;;8.65;7.72;;;;;;;15.20;100.00;101146.66;10523479;28;20295;-68
2022/06/23 04:01:14;;;;;;;16.15;8.57;;;;;;;15.18;100.00;101141.41;10523208;28;20039;-67
2022/06/23 04:06:15;;;;;;;11.65;9.20;;;;;;;15.13;100.00;101132.25;10540943;28;20478;-68
2022/06/23 04:16:37;;;;;;;12.80;9.48;;;;;;;15.22;100.00;101131.75;10538964;28;20477;-68
2022/06/23 04:21:41;;;;;;;18.92;8.52;;;;;;;15.27;100.00;101123.72;10523260;28;20080;-68
2022/06/23 04:26:42;;;;;;;10.40;9.32;;;;;;;15.40;100.00;101133.66;10521726;28;20475;-69
2022/06/23 04:31:48;;;;;;;20.17;9.82;;;;;;;15.46;100.00;101129.22;10520455;28;20477;-69
2022/06/23 04:36:49;;;;;;;16.77;8.47;;;;;;;15.63;100.00;101132.19;10539521;28;20032;-68
2022/06/23 04:42:16;;;;;;;13.85;9.25;;;;;;;16.47;100.00;101136.94;10539830;28;20445;-69
2022/06/23 04:47:17;;;;;;;18.05;9.02;;;;;;;17.00;100.00;101134.50;10539724;28;20149;-70
2022/06/23 04:52:22;;;;;;;8.80;7.78;;;;;;;17.49;100.00;101121.50;10538961;28;20035;-69
2022/06/23 04:57:29;;;;;;;12.80;8.68;;;;;;;17.78;100.00;101130.69;10540921;28;20032;-69
2022/06/23 05:02:37;;;;;;;16.67;7.38;;;;;;;18.10;98.03;101150.28;10539805;28;20024;-69
2022/06/23 05:07:52;;;;;;;11.70;7.57;;;;;;;18.49;95.52;101145.88;10537138;28;20086;-67
2022/06/23 05:12:55;;;;;;;8.68;6.72;;;;;;;18.86;92.72;101137.28;10521556;28;20036;-69
2022/06/23 05:18:12;;;;;;;17.35;7.22;;;;;;;19.15;90.62;101127.09;10521650;28;20480;-68
2022/06/23 05:23:15;;;;;;;15.55;7.95;;;;;;;19.58;87.45;101139.28;10540003;28;20102;-68
2022/06/23 05:28:23;;;;;;;18.48;7.35;;;;;;;19.41;85.73;101141.22;10547026;28;20117;-74
2022/06/23 05:33:25;;;;;;;14.30;8.70;;;;;;;19.86;84.60;101134.78;10529257;28;20031;-68
2022/06/23 05:38:46;;;;;;;12.85;7.75;;;;;;;20.24;80.99;101147.66;10547477;28;20473;-69
2022/06/23 05:43:47;;;;;;;15.20;6.85;;;;;;;20.42;80.19;101149.22;10546942;28;20043;-70
2022/06/23 05:48:58;;;;;;;7.95;7.18;;;;;;;20.79;76.19;101143.06;10546204;28;20020;-70
2022/06/23 05:54:02;;;;;;;9.05;7.28;;;;;;;21.18;76.77;101129.09;10514494;28;20484;-69
2022/06/23 05:59:09;;;;;;;9.25;7.22;;;;;;;21.57;75.07;101132.47;10528241;28;20093;-74
2022/06/23 06:04:15;;;;;;;12.48;7.68;;;;;;;21.65;72.06;101139.41;10528011;28;20032;-74
2022/06/23 06:09:36;;;;;;;7.55;6.15;;;;;;;22.13;72.26;101129.19;10547942;28;20032;-74
2022/06/23 06:14:46;;;;;;;7.38;6.78;;;;;;;22.45;68.88;101132.66;10531443;28;20036;-74
2022/06/23 06:19:47;;;;;;;5.35;4.80;;;;;;;22.73;68.54;101109.25;10529573;28;20111;-74
2022/06/23 06:24:48;;;;;;;11.40;6.68;;;;;;;22.99;66.65;101103.78;10527387;28;20048;-74
2022/06/23 06:29:49;;;;;;;8.50;7.65;;;;;;;23.38;63.72;101108.75;10527779;28;20032;-74
2022/06/23 06:34:51;;;;;;;10.52;6.30;;;;;;;23.60;61.83;101098.19;10527296;28;20107;-74
2022/06/23 06:39:55;;;;;;;13.52;6.97;;;;;;;24.07;62.85;101079.56;10527446;28;20509;-74
2022/06/23 06:44:56;;;;;;;8.40;6.13;;;;;;;24.23;62.07;101078.38;10526933;28;20032;-74
2022/06/23 06:49:59;;;;;;;8.35;5.95;;;;;;;24.37;60.64;101079.38;10546074;28;20445;-74
2022/06/23 06:55:04;;;;;;;14.10;6.18;;;;;;;24.80;57.71;101096.31;10528765;28;20059;-74
2022/06/23 07:00:11;;;;;;;10.65;6.13;;;;;;;25.12;57.03;101108.84;10526565;28;20036;-74
2022/06/23 07:05:29;;;;;;;10.20;7.45;;;;;;;25.55;56.76;101105.38;10543233;28;20107;-74
2022/06/23 07:10:45;;;;;;;6.40;5.82;;;;;;;25.56;52.51;101107.88;10527618;28;20035;-74
2022/06/23 07:15:53;;;;;;;7.75;6.18;;;;;;;25.92;55.20;101099.19;10542094;28;20377;-75
2022/06/23 07:21:06;;;;;;;7.63;6.88;;;;;;;26.23;52.38;101105.19;10525234;28;20167;-72
2022/06/23 07:26:35;;;;;;;10.52;6.03;;;;;;;26.24;51.00;101092.94;10525388;28;20027;-72
2022/06/23 07:31:54;;;;;;;6.90;6.28;;;;;;;26.44;52.29;101094.59;10543260;28;20056;-72
2022/06/23 07:36:58;;;;;;;7.55;6.00;;;;;;;26.75;50.65;101097.78;10526650;28;20090;-72
2022/06/23 07:42:02;;;;;;;10.18;5.97;;;;;;;26.98;50.55;101096.03;10525022;28;20036;-80
2022/06/23 07:47:02;;;;;;;10.00;5.28;;;;;;;27.64;51.10;101090.44;10524442;28;20419;-71
2022/06/23 07:52:03;;;;;;;11.57;6.20;;;;;;;27.97;50.78;101100.38;10507200;28;20097;-71
2022/06/23 07:57:04;;;;;;;14.70;6.65;;;;;;;28.28;47.27;101089.41;10542089;28;20430;-74
2022/06/23 08:02:26;;;;;;;7.72;6.95;;;;;;;28.49;47.02;101097.31;10541632;28;20359;-73
2022/06/23 08:07:26;;;;;;;7.28;6.57;;;;;;;28.70;45.92;101098.50;10526350;28;20052;-75
2022/06/23 08:12:53;;;;;;;19.95;8.30;;;;;;;28.79;45.73;101101.38;10523422;28;20059;-70
2022/06/23 08:18:04;;;;;;;11.23;6.85;;;;;;;29.29;44.48;101084.53;10526107;28;20119;-68
2022/06/23 08:23:04;;;;;;;9.32;7.18;;;;;;;29.48;44.71;101080.66;10541484;28;20052;-68
2022/06/23 08:28:05;;;;;;;10.68;6.47;;;;;;;28.79;48.25;101081.84;10540747;28;20024;-72
2022/06/23 08:33:05;;;;;;;18.58;7.50;;;;;;;28.49;48.51;101067.53;10540928;28;20062;-75
2022/06/23 08:38:10;;;;;;;7.75;6.95;;;;;;;28.08;47.78;101066.72;10540669;28;20028;-73
2022/06/23 08:43:36;;;;;;;10.05;6.88;;;;;;;29.67;46.25;101067.31;10522553;28;20028;-71
2022/06/23 08:49:01;;;;;;;5.70;5.30;;;;;;;29.58;45.93;101069.22;10506734;28;20046;-70
2022/06/23 08:54:16;;;;;;;10.98;8.30;;;;;;;29.55;46.29;101075.47;10540565;28;20035;-71
2022/06/23 08:59:36;;;;;;;8.73;7.90;;;;;;;30.28;44.98;101057.16;10540738;28;20032;-72
2022/06/23 09:05:18;;;;;;;18.70;7.07;;;;;;;30.80;45.03;101059.97;10522086;28;20024;-77
2022/06/23 09:10:25;;;;;;;7.43;6.70;;;;;;;31.47;45.89;101054.91;10540788;28;20047;-71
2022/06/23 09:15:31;;;;;;;9.50;7.75;;;;;;;31.60;42.82;101053.03;10538888;28;20460;-75
2022/06/23 09:21:08;;;;;;;8.05;7.35;;;;;;;31.96;43.81;101044.94;10540825;28;20068;-78
2022/06/23 09:26:40;;;;;;;10.52;8.18;;;;;;;31.98;41.71;101050.22;10522623;28;20028;-72
2022/06/23 09:31:51;;;;;;;10.07;8.43;;;;;;;32.08;41.68;101047.03;10523100;28;20028;-75
2022/06/23 09:37:29;;;;;;;11.15;7.57;;;;;;;32.61;44.13;101036.25;10520757;28;20369;-75
2022/06/23 09:42:54;;;;;;;12.52;7.45;;;;;;;32.74;43.18;101034.31;10415615;28;20499;-68
2022/06/23 09:48:32;;;;;;;9.98;7.72;;;;;;;32.79;40.85;101032.13;10539093;28;20528;-70
2022/06/23 09:53:44;;;;;;;10.60;7.47;;;;;;;33.26;41.86;101033.78;10538634;28;20090;-70
2022/06/23 09:59:12;;;;;;;9.63;6.75;;;;;;;33.40;42.99;101020.22;10504908;28;20385;-68
2022/06/23 10:04:25;;;;;;;11.68;8.77;;;;;;;33.56;42.84;101026.81;10537896;28;20028;-71
2022/06/23 10:09:55;;;;;;;9.77;7.15;;;;;;;33.29;41.92;101021.88;10539579;28;20039;-77
2022/06/23 10:15:24;;;;;;;9.57;7.85;;;;;;;33.52;41.64;101020.28;10527654;28;20244;-75
2022/06/23 10:20:52;;;;;;;12.77;6.20;;;;;;;33.50;41.76;101018.97;10512435;28;20059;-67
2022/06/23 10:26:11;;;;;;;14.15;6.30;;;;;;;33.82;40.14;101016.38;10526930;28;20028;-69
2022/06/23 10:31:33;;;;;;;4.25;3.85;;;;;;;33.31;42.12;101008.28;10546385;28;20055;-75
2022/06/23 10:36:47;;;;;;;6.68;6.15;;;;;;;34.03;38.73;101000.25;10511222;28;20191;-69
2022/06/23 10:42:02;;;;;;;8.63;6.70;;;;;;;34.15;40.35;100990.97;10510053;28;20035;-75
2022/06/23 10:47:14;;;;;;;7.60;5.13;;;;;;;32.56;42.97;100980.41;10528451;28;20024;-73
2022/06/23 10:52:37;;;;;;;12.70;5.85;;;;;;;32.95;42.48;100978.97;10525986;28;20026;-69
2022/06/23 10:58:29;;;;;;;8.13;5.32;;;;;;;33.76;40.25;100984.91;10543110;28;20113;-70
2022/06/23 11:03:51;;;;;;;9.07;7.00;;;;;;;34.56;38.69;100966.44;10525668;28;20036;-74
2022/06/23 11:09:41;;;;;;;6.07;5.05;;;;;;;34.29;39.63;100976.50;10526435;28;20024;-74
2022/06/23 11:14:52;;;;;;;7.85;6.10;;;;;;;33.85;39.53;100981.97;10333204;28;20042;-75
2022/06/23 11:20:30;;;;;;;10.68;6.68;;;;;;;34.59;38.06;100969.38;10524992;28;20047;-74
2022/06/23 11:25:56;;;;;;;11.15;8.18;;;;;;;34.85;39.59;100979.31;10485737;28;20389;-75
2022/06/23 11:32:00;;;;;;;19.25;8.80;;;;;;;34.73;37.84;100971.75;10501124;28;20025;-75
2022/06/23 11:37:34;;;;;;;15.07;8.30;;;;;;;33.25;42.04;100976.00;10368914;28;20489;-75
2022/06/23 11:42:44;;;;;;;10.27;7.40;;;;;;;33.79;41.17;100965.38;10372816;28;20059;-75
2022/06/23 11:48:07;;;;;;;12.23;8.07;;;;;;;35.38;40.95;100948.91;10457430;28;20048;-74
2022/06/23 11:53:29;;;;;;;14.18;7.93;;;;;;;35.57;40.86;100948.19;10500430;28;20028;-75
2022/06/23 11:58:33;;;;;;;17.15;7.15;;;;;;;34.34;39.83;100934.09;10499976;28;20089;-74
2022/06/23 12:03:40;;;;;;;11.03;7.47;;;;;;;33.36;41.12;100946.31;10482062;28;20028;-74
2022/06/23 12:09:21;;;;;;;9.52;8.30;;;;;;;33.29;43.53;100946.09;10499682;28;20028;-74
2022/06/23 12:20:25;;;;;;;9.75;8.23;;;;;;;32.43;43.26;100940.28;10358484;28;20042;-74
2022/06/23 12:25:50;;;;;;;9.80;8.85;;;;;;;32.79;43.04;100939.56;10371505;28;20061;-74
2022/06/23 12:31:14;;;;;;;7.68;6.75;;;;;;;33.45;42.38;100924.56;10371985;28;20073;-71
2022/06/23 12:42:16;;;;;;;7.85;6.18;;;;;;;33.00;42.38;100922.69;10440906;28;20036;-72
2022/06/23 12:47:51;;;;;;;10.13;5.55;;;;;;;34.27;40.25;100915.03;10481292;28;20028;-73
2022/06/23 12:53:20;;;;;;;8.07;5.35;;;;;;;34.16;39.91;100916.72;10480661;28;20109;-81
2022/06/23 12:58:28;;;;;;;7.43;6.28;;;;;;;33.00;42.38;100905.84;10498630;28;20033;-82
2022/06/23 13:03:45;;;;;;;15.15;7.40;;;;;;;33.65;42.23;100914.38;10482592;28;20028;-82
2022/06/23 13:08:54;;;;;;;9.77;6.45;;;;;;;34.77;41.23;100888.28;10511322;28;20033;-83
2022/06/23 13:14:04;;;;;;;19.25;5.38;;;;;;;35.62;39.84;100883.94;10481888;28;20378;-83
2022/06/23 13:19:08;;;;;;;7.05;6.22;;;;;;;36.05;37.24;100893.31;10465877;28;20078;-82
2022/06/23 13:24:10;;;;;;;8.30;6.47;;;;;;;35.68;36.77;100889.28;10525340;28;20048;-74
2022/06/23 13:29:14;;;;;;;7.65;6.75;;;;;;;35.59;37.43;100884.69;10538478;28;20181;-74
2022/06/23 13:34:32;;;;;;;5.95;5.45;;;;;;;35.60;35.95;100883.47;10538972;28;20493;-73
2022/06/23 13:39:40;;;;;;;7.90;5.22;;;;;;;35.11;35.47;100881.13;10521753;28;20024;-75
2022/06/23 13:44:46;;;;;;;4.25;3.85;;;;;;;34.92;37.20;100876.22;10507511;28;20115;-74
2022/06/23 13:49:51;;;;;;;6.50;5.90;;;;;;;35.32;35.53;100868.72;10528100;28;20137;-74
2022/06/23 13:55:02;;;;;;;5.07;4.25;;;;;;;35.38;37.18;100879.34;10530234;28;20107;-73
2022/06/23 14:00:28;;;;;;;27.55;7.32;;;;;;;36.26;38.16;100858.28;10530213;28;20031;-77
2022/06/23 14:05:48;;;;;;;5.95;4.97;;;;;;;34.61;37.64;100864.94;10532835;28;20362;-70
2022/06/23 14:11:09;;;;;;;5.63;4.05;;;;;;;34.91;34.45;100863.31;10527318;28;20066;-75
2022/06/23 14:16:44;;;;;;;5.82;4.00;;;;;;;35.08;37.58;100847.28;10545365;28;20103;-81
2022/06/23 14:22:24;;;;;;;4.65;4.22;;;;;;;35.30;35.54;100846.59;10548520;28;20089;-80
2022/06/23 14:27:29;;;;;;;6.18;3.92;;;;;;;35.07;35.05;100839.97;10539773;28;20036;-81
2022/06/23 14:32:55;;;;;;;4.38;3.22;;;;;;;34.86;36.29;100840.28;10527574;28;20473;-74
2022/06/23 14:38:00;;;;;;;4.53;3.35;;;;;;;34.62;35.48;100830.00;10440241;28;20059;-74
2022/06/23 14:43:18;;;;;;;4.80;2.80;;;;;;;34.02;37.42;100822.41;10511784;28;20043;-74
2022/06/23 14:48:37;;;;;;;3.75;3.47;;;;;;;34.17;35.83;100819.97;10544105;28;20273;-74
2022/06/23 14:53:52;;;;;;;8.38;3.50;;;;;;;33.79;36.52;100807.25;10527150;28;20032;-74
2022/06/23 14:59:14;;;;;;;3.38;2.47;;;;;;;33.14;36.73;100817.69;10526573;28;20477;-74
2022/06/23 15:04:36;;;;;;;3.55;2.80;;;;;;;31.93;38.91;100812.34;10543212;28;20497;-74
2022/06/23 15:10:09;;;;;;;4.25;3.85;;;;;;;31.33;39.85;100805.22;10542978;28;20067;-74
2022/06/23 15:15:34;;;;;;;4.82;3.92;;;;;;;31.24;40.81;100820.09;10509291;28;20489;-74
2022/06/23 15:20:45;;;;;;;4.10;3.67;;;;;;;31.29;40.79;100805.09;10543860;28;20058;-74
2022/06/23 15:26:24;;;;;;;5.75;4.03;;;;;;;30.95;41.14;100803.31;10527233;28;20155;-74
2022/06/23 15:31:36;;;;;;;5.68;3.67;;;;;;;30.38;42.30;100798.97;10476279;28;20070;-74
2022/06/23 15:36:48;;;;;;;7.80;3.35;;;;;;;30.29;42.23;100790.59;10526800;28;20372;-74
2022/06/23 15:42:13;;;;;;;3.55;3.25;;;;;;;30.14;42.28;100796.69;10526257;28;20060;-74
2022/06/23 15:47:29;;;;;;;3.53;3.33;;;;;;;30.49;43.30;100794.63;10543160;28;20024;-74
2022/06/23 15:52:35;;;;;;;4.85;3.05;;;;;;;30.74;42.82;100795.69;10523692;28;20028;-74
2022/06/23 15:58:17;;;;;;;6.68;6.07;;;;;;;31.45;42.91;100800.53;10524216;28;20036;-74
2022/06/23 16:03:33;;;;;;;9.07;6.47;;;;;;;31.72;43.55;100806.75;10487662;28;20397;-74
2022/06/23 16:08:54;;;;;;;9.77;6.05;;;;;;;32.07;43.79;100796.06;10541741;28;20036;-74
2022/06/23 16:14:05;;;;;;;6.32;5.82;;;;;;;31.94;44.10;100809.22;10543079;28;20032;-74
2022/06/23 16:19:17;;;;;;;7.03;6.35;;;;;;;31.99;44.49;100805.38;10523694;28;20401;-74
2022/06/23 16:24:29;;;;;;;16.60;6.15;;;;;;;31.55;45.10;100796.50;10541269;28;20424;-74
2022/06/23 16:29:30;;;;;;;7.97;7.28;;;;;;;30.78;45.86;100793.88;10523862;28;20400;-74
2022/06/23 16:34:51;;;;;;;6.28;5.88;;;;;;;30.39;46.54;100797.00;10523065;28;20113;-74
2022/06/23 16:40:20;;;;;;;7.30;6.43;;;;;;;29.97;46.83;100788.38;10507300;28;20032;-74
2022/06/23 16:45:51;;;;;;;7.72;5.18;;;;;;;29.79;46.92;100790.34;10524368;28;20035;-74
2022/06/23 16:50:56;;;;;;;10.77;6.22;;;;;;;29.48;47.17;100788.50;10527105;28;20129;-74
2022/06/23 16:56:11;;;;;;;8.02;5.90;;;;;;;29.20;47.58;100790.81;10526416;28;20119;-74
2022/06/23 17:01:12;;;;;;;8.38;7.03;;;;;;;29.00;47.49;100788.59;10506052;28;20430;-73
2022/06/23 17:06:23;;;;;;;6.77;6.17;;;;;;;28.76;48.38;100797.41;10521872;28;20088;-74
2022/06/23 17:11:33;;;;;;;7.10;6.45;;;;;;;28.46;48.31;100797.09;10521238;28;20040;-74
2022/06/23 17:16:51;;;;;;;12.38;6.30;;;;;;;28.14;48.94;100787.06;10523100;28;20028;-74
2022/06/23 17:21:57;;;;;;;6.68;6.07;;;;;;;27.92;49.29;100785.97;10527554;28;20091;-73
2022/06/23 17:27:13;;;;;;;8.55;6.55;;;;;;;27.79;49.50;100786.84;10515353;28;20122;-74
2022/06/23 17:32:23;;;;;;;17.77;5.55;;;;;;;27.53;50.57;100797.72;10547548;28;20028;-74
2022/06/23 17:37:31;;;;;;;7.32;5.65;;;;;;;27.37;50.34;100802.81;10514801;28;20361;-74
2022/06/23 17:47:56;;;;;;;7.07;5.22;;;;;;;27.10;50.30;100798.13;10532100;28;20473;-74
2022/06/23 17:52:57;;;;;;;8.38;5.63;;;;;;;26.98;50.48;100798.66;10528734;28;20086;-74
2022/06/23 17:58:12;;;;;;;4.75;4.15;;;;;;;26.87;51.06;100800.00;10547624;28;20519;-73
2022/06/23 18:03:34;;;;;;;7.45;5.30;;;;;;;26.72;52.35;100803.09;10528254;28;20035;-74
2022/06/23 18:08:38;;;;;;;18.00;6.07;;;;;;;26.56;52.27;100806.16;10530572;28;20412;-73
2022/06/23 18:14:09;;;;;;;5.55;5.05;;;;;;;26.49;51.92;100804.94;10528515;28;20385;-74
2022/06/23 18:19:33;;;;;;;8.10;5.20;;;;;;;26.28;53.07;100813.59;10545142;28;20059;-74
2022/06/23 18:24:36;;;;;;;9.07;4.68;;;;;;;26.21;52.56;100821.50;10511035;28;20063;-73
2022/06/23 18:29:45;;;;;;;5.20;4.70;;;;;;;26.22;52.33;100814.81;10527094;28;20170;-73
2022/06/23 18:35:10;;;;;;;6.55;4.80;;;;;;;26.25;52.46;100810.59;10526767;28;20027;-74
2022/06/23 18:40:35;;;;;;;7.20;4.40;;;;;;;26.13;52.71;100802.75;10527999;28;20040;-74
2022/06/23 18:46:00;;;;;;;4.88;4.47;;;;;;;26.04;52.87;100808.19;10544934;28;20047;-74
2022/06/23 18:51:07;;;;;;;5.38;4.60;;;;;;;26.02;52.17;100796.56;10545232;28;20020;-73
2022/06/23 18:56:10;;;;;;;6.15;3.80;;;;;;;26.04;52.63;100799.88;10527912;28;20036;-74
2022/06/23 19:01:20;;;;;;;10.88;4.80;;;;;;;25.95;52.69;100801.69;10509690;28;20039;-74
2022/06/23 19:06:22;;;;;;;4.10;3.80;;;;;;;25.87;52.16;100799.59;10526823;28;20086;-74
2022/06/23 19:11:33;;;;;;;4.72;4.22;;;;;;;25.82;52.47;100803.28;10525946;28;20060;-74
2022/06/23 19:16:48;;;;;;;4.90;4.15;;;;;;;25.75;52.40;100809.19;10525915;28;20078;-70
2022/06/23 19:22:23;;;;;;;7.90;4.38;;;;;;;25.66;52.47;100804.63;10542669;28;20040;-70
2022/06/23 19:27:29;;;;;;;8.40;4.32;;;;;;;25.58;52.22;100803.34;10544357;28;20101;-71
2022/06/23 19:32:29;;;;;;;;;;;;;;;25.60;52.31;100812.19;10525778;28;20027;-71
2022/06/23 19:37:57;;;;;;;6.22;4.30;;;;;;;25.62;52.42;100809.97;10542608;28;20365;-71
2022/06/23 19:43:31;;;;;;;5.72;4.80;;;;;;;25.59;52.69;100816.09;10524379;28;20035;-71
2022/06/23 19:48:35;;;;;;;8.43;4.40;;;;;;;25.54;52.27;100826.44;10526252;28;20054;-71
2022/06/23 19:53:43;;;;;;;16.17;4.72;;;;;;;25.48;52.47;100828.47;10541250;28;20039;-71
2022/06/23 19:59:12;;;;;;;7.53;5.03;;;;;;;25.38;52.90;100831.38;10507535;28;20032;-71
2022/06/23 20:04:21;;;;;;;8.65;4.90;;;;;;;25.27;52.52;100820.44;10508507;28;20082;-71
2022/06/23 20:09:42;;;;;;;8.43;4.45;;;;;;;25.20;52.72;100821.91;10523040;28;20550;-71
2022/06/23 20:14:59;;;;;;;5.65;4.43;;;;;;;25.14;53.10;100825.88;10541689;28;20036;-71
2022/06/23 20:20:18;;;;;;;;;;;;;;;25.01;52.72;100827.38;10540193;28;20024;-70
2022/06/23 20:25:21;;;;;;;8.35;5.07;;;;;;;24.94;52.93;100811.13;10542365;28;19958;-70
2022/06/23 20:30:51;;;;;;;4.68;4.07;;;;;;;24.80;53.80;100797.19;10540334;28;20036;-70
2022/06/23 20:36:13;;;;;;;5.18;4.68;;;;;;;24.55;55.47;100790.00;10522723;28;20028;-70
2022/06/23 20:41:19;;;;;;;5.47;4.97;;;;;;;24.27;55.40;100794.41;10542575;28;20553;-70
2022/06/23 20:46:32;;;;;;;4.78;4.22;;;;;;;24.09;55.85;100784.06;10541218;28;20038;-70
2022/06/23 20:51:36;;;;;;;8.43;5.43;;;;;;;23.97;55.65;100775.34;10538679;28;20024;-70
2022/06/23 20:56:58;;;;;;;10.27;6.22;;;;;;;23.88;56.16;100758.53;10538860;28;20032;-70
2022/06/23 21:02:02;;;;;;;18.17;5.40;;;;;;;23.82;55.87;100762.47;10539806;28;20075;-70
2022/06/23 21:07:08;;;;;;;7.32;6.25;;;;;;;23.69;58.54;100768.66;10539111;28;20085;-70
2022/06/23 21:12:12;;;;;;;;;;;;;;;23.36;57.36;100760.84;10540616;28;20153;-70
2022/06/23 21:17:29;;;;;;;6.38;5.82;;;;;;;23.18;58.27;100767.03;10522599;28;20045;-70
2022/06/23 21:22:51;;;;;;;13.10;6.15;;;;;;;23.05;58.90;100764.91;10538276;28;20040;-70
2022/06/23 21:27:54;;;;;;;6.57;5.53;;;;;;;22.92;58.48;100778.19;10540339;28;20450;-71
2022/06/23 21:32:59;;;;;;;6.80;6.05;;;;;;;22.80;59.32;100757.53;10539094;28;20036;-73
2022/06/23 21:38:31;;;;;;;11.02;6.57;;;;;;;22.71;59.90;100765.56;10521874;28;20066;-73
2022/06/23 21:43:45;;;;;;;10.15;7.20;;;;;;;22.62;59.97;100778.28;10490525;28;20088;-73
2022/06/23 21:49:07;;;;;;;6.68;5.93;;;;;;;22.53;60.40;100772.53;10503885;28;20028;-73
2022/06/23 21:54:26;;;;;;;8.65;7.20;;;;;;;22.49;60.85;100768.66;10539247;28;20032;-73
2022/06/23 21:59:33;;;;;;;6.10;5.50;;;;;;;22.42;60.38;100776.41;10538901;28;20032;-73
2022/06/23 22:04:36;;;;;;;11.48;6.22;;;;;;;22.38;60.40;100762.34;10522422;28;20055;-73
2022/06/23 22:09:56;;;;;;;8.38;7.50;;;;;;;22.45;62.22;100756.53;10530171;28;20119;-73
2022/06/23 22:15:06;;;;;;;9.13;7.57;;;;;;;22.48;61.61;100751.28;10512274;28;20028;-73
2022/06/23 22:20:27;;;;;;;15.48;8.25;;;;;;;22.46;61.05;100750.75;10528651;28;20063;-73
2022/06/23 22:31:00;;;;;;;8.15;7.30;;;;;;;22.39;63.18;100741.09;10544363;28;20032;-73
2022/06/23 22:36:19;;;;;;;8.18;7.05;;;;;;;22.28;63.71;100732.84;10527783;28;20028;-73
2022/06/23 22:41:20;;;;;;;8.13;7.32;;;;;;;22.22;62.82;100733.97;10545516;28;20042;-73
2022/06/23 22:46:22;;;;;;;13.18;8.80;;;;;;;22.17;62.60;100725.69;10545336;28;20024;-73
2022/06/23 22:51:32;;;;;;;20.65;8.07;;;;;;;22.16;63.46;100740.59;10544990;28;20028;-73
2022/06/23 22:56:48;;;;;;;9.48;7.15;;;;;;;22.10;64.27;100743.63;10526829;28;20122;-74
2022/06/23 23:02:12;;;;;;;10.63;7.47;;;;;;;22.10;63.57;100740.88;10511129;28;20042;-73
2022/06/23 23:07:17;;;;;;;16.23;7.68;;;;;;;22.09;63.85;100725.44;10525560;28;20039;-73
2022/06/23 23:12:51;;;;;;;18.30;8.05;;;;;;;22.17;64.53;100716.59;10528103;28;20032;-73
2022/06/23 23:17:58;;;;;;;8.30;7.50;;;;;;;22.23;63.63;100723.75;10525865;28;20044;-73
2022/06/23 23:22:58;;;;;;;9.73;8.63;;;;;;;22.29;63.36;100734.50;10543477;28;20529;-73
2022/06/23 23:28:19;;;;;;;14.80;9.18;;;;;;;22.43;64.43;100753.22;10525668;28;20040;-74
2022/06/23 23:33:31;;;;;;;8.32;7.63;;;;;;;22.53;63.95;100728.38;10525260;28;20032;-73
2022/06/23 23:38:46;;;;;;;7.82;7.13;;;;;;;22.58;63.90;100717.31;10544362;28;20085;-73
2022/06/23 23:43:47;;;;;;;12.32;8.40;;;;;;;22.61;63.56;100715.91;10543530;28;20426;-73
2022/06/23 23:48:49;;;;;;;17.08;8.55;;;;;;;22.68;63.97;100710.91;10508214;28;20020;-73
2022/06/23 23:53:51;;;;;;;10.60;7.30;;;;;;;22.74;63.55;100699.56;10524385;28;20111;-73
2022/06/23 23:58:56;;;;;;;11.10;8.13;;;;;;;22.83;63.27;100690.69;10542536;28;20028;-73
